createdAt,value
2022-09-30T00:01:44.072Z,14.78
2022-09-30T00:04:16.383Z,14.77
2022-09-30T00:06:47.642Z,14.75
2022-09-30T00:09:16.611Z,14.71
2022-09-30T00:11:46.981Z,14.67
2022-09-30T00:14:21.218Z,14.66
2022-09-30T00:16:50.405Z,14.66
2022-09-30T00:19:18.491Z,14.66
2022-09-30T00:21:48.132Z,14.66
2022-09-30T00:24:16.173Z,14.67
2022-09-30T00:26:44.166Z,14.67
2022-09-30T00:29:12.497Z,14.60
2022-09-30T00:31:40.890Z,14.58
2022-09-30T00:34:10.350Z,14.50
2022-09-30T00:36:43.677Z,14.47
2022-09-30T00:39:16.255Z,14.41
2022-09-30T00:41:45.252Z,14.39
2022-09-30T00:44:48.014Z,14.34
2022-09-30T00:47:48.356Z,14.29
2022-09-30T00:50:35.080Z,14.27
2022-09-30T00:53:13.501Z,14.25
2022-09-30T00:55:49.218Z,14.22
2022-09-30T00:58:25.732Z,14.21
2022-09-30T01:00:53.905Z,14.16
2022-09-30T01:03:23.333Z,14.09
2022-09-30T01:05:52.527Z,14.02
2022-09-30T01:08:22.294Z,13.98
2022-09-30T01:10:51.824Z,13.93
2022-09-30T01:13:22.684Z,13.84
2022-09-30T01:16:06.931Z,13.74
2022-09-30T01:18:50.115Z,13.65
2022-09-30T01:22:05.158Z,13.57
2022-09-30T01:24:57.527Z,13.50
2022-09-30T01:27:48.615Z,13.44
2022-09-30T01:30:21.944Z,13.46
2022-09-30T01:33:19.746Z,13.45
2022-09-30T01:36:06.441Z,13.46
2022-09-30T01:38:44.497Z,13.49
2022-09-30T01:41:22.362Z,13.53
2022-09-30T01:44:03.147Z,13.57
2022-09-30T01:46:37.300Z,13.62
2022-09-30T01:49:17.159Z,13.64
2022-09-30T01:51:53.574Z,13.65
2022-09-30T01:54:28.123Z,13.57
2022-09-30T01:57:02.120Z,13.49
2022-09-30T01:59:37.515Z,13.44
2022-09-30T02:02:11.478Z,13.39
2022-09-30T02:04:45.677Z,13.28
2022-09-30T02:07:17.389Z,13.25
2022-09-30T02:09:52.081Z,13.20
2022-09-30T02:12:22.634Z,13.20
2022-09-30T02:14:54.557Z,13.17
2022-09-30T02:17:27.221Z,13.19
2022-09-30T02:20:01.130Z,13.18
2022-09-30T02:22:40.773Z,13.14
2022-09-30T02:25:12.690Z,13.16
2022-09-30T02:27:46.863Z,13.13
2022-09-30T02:30:15.947Z,13.13
2022-09-30T02:32:51.087Z,13.17
2022-09-30T02:35:26.936Z,13.19
2022-09-30T02:38:00.744Z,13.21
2022-09-30T02:40:36.009Z,13.21
2022-09-30T02:43:10.659Z,13.20
2022-09-30T02:45:47.694Z,13.20
2022-09-30T02:48:25.528Z,13.13
2022-09-30T02:51:01.659Z,13.12
2022-09-30T02:53:35.318Z,13.08
2022-09-30T02:56:17.866Z,13.07
2022-09-30T02:58:47.154Z,13.08
2022-09-30T03:01:17.432Z,13.05
2022-09-30T03:03:49.250Z,13.02
2022-09-30T03:06:19.858Z,12.99
2022-09-30T03:08:48.509Z,12.97
2022-09-30T03:11:19.632Z,12.94
2022-09-30T03:14:29.346Z,12.89
2022-09-30T03:17:14.489Z,12.86
2022-09-30T03:19:59.791Z,12.87
2022-09-30T03:22:53.157Z,12.89
2022-09-30T03:25:31.774Z,12.92
2022-09-30T03:28:11.831Z,12.95
2022-09-30T03:30:54.236Z,13.02
2022-09-30T03:33:26.598Z,13.08
2022-09-30T03:36:02.056Z,13.17
2022-09-30T03:38:41.344Z,13.24
2022-09-30T03:41:18.362Z,13.24
2022-09-30T03:43:50.885Z,13.24
2022-09-30T03:46:25.962Z,13.19
2022-09-30T03:48:58.255Z,13.14
2022-09-30T03:51:26.578Z,13.12
2022-09-30T03:53:56.441Z,13.09
2022-09-30T03:56:28.584Z,13.07
2022-09-30T03:58:58.664Z,13.06
2022-09-30T04:01:26.716Z,13.05
2022-09-30T04:03:55.244Z,13.08
2022-09-30T04:06:25.553Z,13.10
2022-09-30T04:08:54.387Z,13.12
2022-09-30T04:11:23.879Z,13.18
2022-09-30T04:13:52.004Z,13.17
2022-09-30T04:16:20.504Z,13.13
2022-09-30T04:18:48.605Z,13.07
2022-09-30T04:21:17.394Z,13.07
2022-09-30T04:23:45.792Z,13.05
2022-09-30T04:26:15.946Z,13.07
2022-09-30T04:28:45.547Z,13.06
2022-09-30T04:31:15.393Z,13.04
2022-09-30T04:33:44.831Z,13.07
2022-09-30T04:36:13.005Z,13.12
2022-09-30T04:38:41.327Z,13.16
2022-09-30T04:41:18.071Z,13.23
2022-09-30T04:43:48.694Z,13.30
2022-09-30T04:46:19.208Z,13.36
2022-09-30T04:48:48.722Z,13.43
2022-09-30T04:51:18.108Z,13.51
2022-09-30T04:53:47.041Z,13.59
2022-09-30T04:56:16.889Z,13.66
2022-09-30T04:58:45.286Z,13.71
2022-09-30T05:01:16.371Z,13.77
2022-09-30T05:03:44.851Z,13.87
2022-09-30T05:06:13.448Z,13.96
2022-09-30T05:08:46.147Z,14.01
2022-09-30T05:11:17.527Z,14.05
2022-09-30T05:13:46.217Z,14.07
2022-09-30T05:16:16.862Z,14.10
2022-09-30T05:18:47.137Z,14.13
2022-09-30T05:21:17.321Z,14.12
2022-09-30T05:23:45.794Z,14.13
2022-09-30T05:26:14.580Z,14.13
2022-09-30T05:28:43.571Z,14.17
2022-09-30T05:31:12.397Z,14.22
2022-09-30T05:33:42.168Z,14.29
2022-09-30T05:36:13.309Z,14.32
2022-09-30T05:38:41.345Z,14.36
2022-09-30T05:41:11.405Z,14.39
2022-09-30T05:43:40.565Z,14.41
2022-09-30T05:46:09.073Z,14.45
2022-09-30T05:48:37.220Z,14.47
2022-09-30T05:51:07.742Z,14.49
2022-09-30T05:53:38.755Z,14.55
2022-09-30T05:56:07.308Z,14.59
2022-09-30T05:58:35.503Z,14.64
2022-09-30T06:01:13.127Z,14.70
2022-09-30T06:03:42.484Z,14.74
2022-09-30T06:06:11.874Z,14.74
2022-09-30T06:08:40.376Z,14.77
2022-09-30T06:11:12.920Z,14.78
2022-09-30T06:13:42.143Z,14.82
2022-09-30T06:16:11.940Z,14.85
2022-09-30T06:18:41.311Z,14.87
2022-09-30T06:21:13.192Z,14.95
2022-09-30T06:23:41.340Z,14.99
2022-09-30T06:26:13.482Z,15.05
2022-09-30T06:28:43.053Z,15.08
2022-09-30T06:31:11.588Z,15.15
2022-09-30T06:33:39.945Z,15.26
2022-09-30T06:36:07.990Z,15.33
2022-09-30T06:38:39.949Z,15.40
2022-09-30T06:41:08.459Z,15.45
2022-09-30T06:43:44.357Z,15.56
2022-09-30T06:46:22.004Z,15.60
2022-09-30T06:49:07.415Z,15.70
2022-09-30T06:51:39.092Z,15.75
2022-09-30T06:54:09.264Z,15.86
2022-09-30T06:56:37.511Z,15.91
2022-09-30T06:59:05.550Z,15.96
2022-09-30T07:01:33.566Z,16.01
2022-09-30T07:04:08.033Z,16.06
2022-09-30T07:06:36.259Z,16.12
2022-09-30T07:09:04.412Z,16.15
2022-09-30T07:11:34.610Z,16.19
2022-09-30T07:14:04.422Z,16.24
2022-09-30T07:16:33.885Z,16.27
2022-09-30T07:19:03.991Z,16.35
2022-09-30T07:21:32.296Z,16.36
2022-09-30T07:24:00.507Z,16.43
2022-09-30T07:26:29.197Z,16.47
2022-09-30T07:29:00.181Z,16.51
2022-09-30T07:31:34.089Z,16.60
2022-09-30T07:34:03.034Z,16.64
2022-09-30T07:36:33.470Z,16.67
2022-09-30T07:39:07.059Z,16.74
2022-09-30T07:41:37.835Z,16.81
2022-09-30T07:44:12.315Z,16.88
2022-09-30T07:46:40.713Z,16.94
2022-09-30T07:49:13.564Z,16.97
2022-09-30T07:51:45.623Z,17.03
2022-09-30T07:54:16.440Z,17.09
2022-09-30T07:57:08.743Z,17.12
2022-09-30T07:59:37.693Z,17.20
2022-09-30T08:02:06.973Z,17.30
2022-09-30T08:04:36.575Z,17.33
2022-09-30T08:07:07.331Z,17.40
2022-09-30T08:09:35.563Z,17.51
2022-09-30T08:12:05.345Z,17.52
2022-09-30T08:14:34.950Z,17.59
2022-09-30T08:17:02.968Z,17.65
2022-09-30T08:19:33.759Z,17.71
2022-09-30T08:24:31.252Z,17.81
2022-09-30T08:26:59.791Z,17.87
2022-09-30T08:29:54.853Z,17.92
2022-09-30T08:32:17.753Z,18.06
2022-09-30T08:34:46.086Z,18.10
2022-09-30T08:37:14.152Z,18.13
2022-09-30T08:39:43.550Z,18.19
2022-09-30T08:42:45.341Z,18.22
2022-09-30T08:45:23.490Z,18.20
2022-09-30T08:48:02.758Z,18.20
2022-09-30T08:50:42.065Z,18.23
2022-09-30T08:53:17.034Z,18.26
2022-09-30T08:55:47.769Z,18.24
2022-09-30T08:58:23.875Z,18.30
2022-09-30T09:00:56.388Z,18.30
2022-09-30T09:03:29.959Z,18.29
2022-09-30T09:06:06.839Z,18.32
2022-09-30T09:08:56.759Z,18.36
2022-09-30T09:11:48.953Z,18.38
2022-09-30T09:14:30.285Z,18.42
2022-09-30T09:17:15.865Z,18.44
2022-09-30T09:19:54.798Z,18.53
2022-09-30T09:22:25.099Z,18.57
2022-09-30T09:24:54.876Z,18.62
2022-09-30T09:27:27.231Z,18.71
2022-09-30T09:30:06.481Z,18.81
2022-09-30T09:32:36.023Z,18.89
2022-09-30T09:35:16.447Z,18.94
2022-09-30T09:38:14.230Z,19.01
2022-09-30T09:40:57.611Z,19.02
2022-09-30T09:43:34.122Z,19.03
2022-09-30T09:46:11.789Z,19.00
2022-09-30T09:48:39.976Z,18.98
2022-09-30T09:51:19.186Z,18.96
2022-09-30T09:53:51.037Z,18.95
2022-09-30T09:56:21.296Z,18.96
2022-09-30T09:59:15.269Z,18.92
2022-09-30T10:01:46.325Z,18.89
2022-09-30T10:04:22.025Z,18.90
2022-09-30T10:06:54.133Z,18.88
2022-09-30T10:09:33.805Z,18.84
2022-09-30T10:12:28.436Z,18.80
2022-09-30T10:15:03.235Z,18.80
2022-09-30T10:17:33.189Z,18.78
2022-09-30T10:20:06.844Z,18.77
2022-09-30T10:22:37.796Z,18.83
2022-09-30T10:25:25.459Z,18.82
2022-09-30T10:27:56.693Z,18.78
2022-09-30T10:30:33.739Z,18.78
2022-09-30T10:33:04.426Z,18.78
2022-09-30T10:35:32.614Z,18.76
2022-09-30T10:38:02.647Z,18.79
2022-09-30T10:40:32.110Z,18.78
2022-09-30T10:43:00.287Z,18.81
2022-09-30T10:45:34.642Z,18.75
2022-09-30T10:48:07.765Z,18.77
2022-09-30T10:50:36.271Z,18.85
2022-09-30T10:53:16.626Z,18.87
2022-09-30T10:55:46.133Z,18.96
2022-09-30T10:58:25.358Z,18.94
2022-09-30T11:01:01.558Z,18.91
2022-09-30T11:03:35.845Z,18.95
2022-09-30T11:06:05.217Z,18.95
2022-09-30T11:08:40.308Z,18.97
2022-09-30T11:11:14.203Z,19.00
2022-09-30T11:13:50.822Z,19.05
2022-09-30T11:16:26.321Z,19.05
2022-09-30T11:19:02.756Z,19.11
2022-09-30T11:21:37.713Z,19.11
2022-09-30T11:24:20.010Z,19.18
2022-09-30T11:26:58.630Z,19.24
2022-09-30T11:29:45.335Z,19.23
2022-09-30T11:32:24.174Z,19.18
2022-09-30T11:35:04.560Z,19.20
2022-09-30T11:37:58.657Z,19.17
2022-09-30T11:40:36.282Z,19.11
2022-09-30T11:43:15.710Z,19.05
2022-09-30T11:46:08.365Z,19.00
2022-09-30T11:48:47.903Z,18.96
2022-09-30T11:51:24.225Z,18.96
2022-09-30T11:54:04.519Z,18.94
2022-09-30T11:56:54.462Z,18.95
2022-09-30T11:59:27.607Z,18.95
2022-09-30T12:01:59.237Z,18.93
2022-09-30T12:04:32.334Z,18.97
2022-09-30T12:07:06.425Z,18.98
2022-09-30T12:09:38.633Z,18.96
2022-09-30T12:12:16.029Z,18.96
2022-09-30T12:14:48.525Z,18.95
2022-09-30T12:17:27.095Z,18.93
2022-09-30T12:19:58.683Z,18.96
2022-09-30T12:22:31.788Z,18.92
2022-09-30T12:24:59.790Z,18.89
2022-09-30T12:27:39.289Z,18.94
2022-09-30T12:30:17.881Z,18.91
2022-09-30T12:33:22.345Z,18.93
2022-09-30T12:36:18.568Z,18.92
2022-09-30T12:39:29.198Z,18.90
2022-09-30T12:42:46.960Z,18.92
2022-09-30T12:45:56.530Z,18.88
2022-09-30T12:48:33.198Z,18.90
2022-09-30T12:51:02.136Z,18.83
2022-09-30T12:53:33.166Z,18.87
2022-09-30T12:56:07.157Z,18.84
2022-09-30T12:58:38.704Z,18.85
2022-09-30T13:01:12.698Z,18.79
2022-09-30T13:04:16.625Z,18.76
2022-09-30T13:07:13.772Z,18.75
2022-09-30T13:09:58.441Z,18.75
2022-09-30T13:12:29.156Z,18.74
2022-09-30T13:15:34.603Z,18.73
2022-09-30T13:18:29.395Z,18.74
2022-09-30T13:21:18.966Z,18.74
2022-09-30T13:23:48.502Z,18.80
2022-09-30T13:26:46.536Z,18.78
2022-09-30T13:29:38.390Z,18.78
2022-09-30T13:32:07.780Z,18.84
2022-09-30T13:34:50.793Z,18.80
2022-09-30T13:38:07.235Z,18.85
2022-09-30T13:40:57.559Z,18.92
2022-09-30T13:43:28.509Z,18.92
2022-09-30T13:46:00.354Z,18.95
2022-09-30T13:48:33.645Z,18.93
2022-09-30T13:51:08.394Z,18.98
2022-09-30T13:53:41.100Z,18.99
2022-09-30T13:56:15.018Z,19.08
2022-09-30T13:59:14.598Z,19.07
2022-09-30T14:02:00.793Z,19.09
2022-09-30T14:05:01.740Z,19.11
2022-09-30T14:07:43.358Z,19.12
2022-09-30T14:10:35.018Z,19.16
2022-09-30T14:13:32.546Z,19.15
2022-09-30T14:16:28.385Z,19.18
2022-09-30T14:19:22.361Z,19.19
2022-09-30T14:21:56.534Z,19.23
2022-09-30T14:24:31.721Z,19.25
2022-09-30T14:27:29.472Z,19.25
2022-09-30T14:30:06.079Z,19.28
2022-09-30T14:32:40.172Z,19.33
2022-09-30T14:35:10.231Z,19.28
2022-09-30T14:37:42.730Z,19.38
2022-09-30T14:40:13.393Z,19.39
2022-09-30T14:42:45.569Z,19.45
2022-09-30T14:45:20.123Z,19.46
2022-09-30T14:47:52.597Z,19.51
2022-09-30T14:50:24.650Z,19.53
2022-09-30T14:52:58.046Z,19.59
2022-09-30T14:55:30.475Z,19.54
2022-09-30T14:58:22.730Z,19.64
2022-09-30T15:00:59.053Z,19.69
2022-09-30T15:03:28.769Z,19.77
2022-09-30T15:05:58.149Z,19.79
2022-09-30T15:08:26.416Z,19.85
2022-09-30T15:10:56.773Z,19.91
2022-09-30T15:13:31.245Z,19.94
2022-09-30T15:15:59.525Z,19.93
2022-09-30T15:18:30.582Z,20.01
2022-09-30T15:21:00.942Z,20.02
2022-09-30T15:23:32.489Z,19.99
2022-09-30T15:26:01.874Z,20.04
2022-09-30T15:28:31.332Z,20.04
2022-09-30T15:31:00.342Z,20.04
2022-09-30T15:33:31.998Z,20.02
2022-09-30T15:36:04.508Z,20.06
2022-09-30T15:38:34.398Z,20.04
2022-09-30T15:41:05.584Z,20.05
2022-09-30T15:43:39.791Z,20.11
2022-09-30T15:46:23.653Z,20.15
2022-09-30T15:48:51.851Z,20.17
2022-09-30T15:51:30.227Z,20.19
2022-09-30T15:54:00.466Z,20.25
2022-09-30T15:56:35.513Z,20.28
2022-09-30T15:59:07.883Z,20.35
2022-09-30T16:01:38.661Z,20.37
2022-09-30T16:04:11.134Z,20.35
2022-09-30T16:06:46.692Z,20.40
2022-09-30T16:09:24.934Z,20.42
2022-09-30T16:12:03.046Z,20.47
2022-09-30T16:14:34.755Z,20.48
2022-09-30T16:17:06.519Z,20.53
2022-09-30T16:19:37.967Z,20.54
2022-09-30T16:22:06.269Z,20.57
2022-09-30T16:25:02.518Z,20.57
2022-09-30T16:27:32.822Z,20.64
2022-09-30T16:30:03.175Z,20.64
2022-09-30T16:32:40.230Z,20.65
2022-09-30T16:35:17.640Z,20.65
2022-09-30T16:37:45.852Z,20.70
2022-09-30T16:40:20.903Z,20.67
2022-09-30T16:42:49.053Z,20.71
2022-09-30T16:45:19.227Z,20.73
2022-09-30T16:47:47.456Z,20.75
2022-09-30T16:50:29.835Z,20.83
2022-09-30T16:52:57.806Z,20.80
2022-09-30T16:55:26.638Z,20.86
2022-09-30T16:57:57.278Z,20.82
2022-09-30T17:00:28.043Z,20.83
2022-09-30T17:02:56.303Z,20.84
2022-09-30T17:05:25.574Z,20.84
2022-09-30T17:07:56.330Z,20.88
2022-09-30T17:10:28.051Z,20.88
2022-09-30T17:12:56.933Z,20.89
2022-09-30T17:15:26.398Z,20.92
2022-09-30T17:17:54.365Z,20.94
2022-09-30T17:20:22.925Z,20.94
2022-09-30T17:22:51.910Z,20.92
2022-09-30T17:25:20.499Z,20.93
2022-09-30T17:27:50.136Z,20.89
2022-09-30T17:30:18.828Z,20.91
2022-09-30T17:32:48.597Z,20.94
2022-09-30T17:35:16.831Z,20.94
2022-09-30T17:37:47.808Z,20.95
2022-09-30T17:40:33.485Z,20.93
2022-09-30T17:43:11.741Z,20.86
2022-09-30T17:45:41.184Z,20.90
2022-09-30T17:48:11.481Z,20.86
2022-09-30T17:50:44.259Z,20.89
2022-09-30T17:53:14.242Z,20.87
2022-09-30T17:55:43.776Z,20.87
2022-09-30T17:58:12.524Z,20.87
2022-09-30T18:00:40.843Z,20.82
2022-09-30T18:03:10.885Z,20.85
2022-09-30T18:05:39.141Z,20.84
2022-09-30T18:08:07.365Z,20.83
2022-09-30T18:10:37.886Z,20.85
2022-09-30T18:13:06.076Z,20.83
2022-09-30T18:15:34.385Z,20.80
2022-09-30T18:18:02.224Z,20.76
2022-09-30T18:20:31.617Z,20.79
2022-09-30T18:22:59.660Z,20.75
2022-09-30T18:25:27.725Z,20.72
2022-09-30T18:27:58.782Z,20.73
2022-09-30T18:30:27.157Z,20.70
2022-09-30T18:32:56.382Z,20.74
2022-09-30T18:35:25.524Z,20.69
2022-09-30T18:37:55.203Z,20.66
2022-09-30T18:40:25.897Z,20.64
2022-09-30T18:42:56.587Z,20.61
2022-09-30T18:45:24.984Z,20.61
2022-09-30T18:47:56.711Z,20.53
2022-09-30T18:50:25.807Z,20.55
2022-09-30T18:52:57.818Z,20.59
2022-09-30T18:55:26.160Z,20.56
2022-09-30T18:57:55.409Z,20.53
2022-09-30T19:00:23.405Z,20.55
2022-09-30T19:02:53.431Z,20.50
2022-09-30T19:05:22.852Z,20.54
2022-09-30T19:07:50.698Z,20.53
2022-09-30T19:10:20.287Z,20.53
2022-09-30T19:12:48.204Z,20.53
2022-09-30T19:15:17.215Z,20.47
2022-09-30T19:17:45.496Z,20.49
2022-09-30T19:20:17.683Z,20.51
2022-09-30T19:22:46.840Z,20.46
2022-09-30T19:25:16.489Z,20.45
2022-09-30T19:27:46.782Z,20.49
2022-09-30T19:30:16.346Z,20.42
2022-09-30T19:32:44.242Z,20.44
2022-09-30T19:35:14.242Z,20.41
2022-09-30T19:37:54.782Z,20.42
2022-09-30T19:40:28.180Z,20.40
2022-09-30T19:42:57.745Z,20.40
2022-09-30T19:45:27.262Z,20.37
2022-09-30T19:47:55.509Z,20.40
2022-09-30T19:50:23.427Z,20.35
2022-09-30T19:52:57.472Z,20.33
2022-09-30T19:55:26.146Z,20.34
2022-09-30T19:57:54.285Z,20.35
2022-09-30T20:00:24.175Z,20.36
2022-09-30T20:02:52.847Z,20.40
2022-09-30T20:05:21.588Z,20.40
2022-09-30T20:07:51.235Z,20.38
2022-09-30T20:10:19.560Z,20.34
2022-09-30T20:12:47.556Z,20.30
2022-09-30T20:15:33.150Z,20.33
2022-09-30T20:18:02.624Z,20.28
2022-09-30T20:20:37.213Z,20.26
2022-09-30T20:23:05.821Z,20.23
2022-09-30T20:25:35.622Z,20.24
2022-09-30T20:28:05.016Z,20.25
2022-09-30T20:30:33.952Z,20.33
2022-09-30T20:33:03.516Z,20.27
2022-09-30T20:35:31.907Z,20.26
2022-09-30T20:38:00.171Z,20.25
2022-09-30T20:40:28.238Z,20.27
2022-09-30T20:43:02.077Z,20.30
2022-09-30T20:45:30.617Z,20.27
2022-09-30T20:47:59.213Z,20.25
2022-09-30T20:50:38.133Z,20.28
2022-09-30T20:53:09.278Z,20.26
2022-09-30T20:55:39.234Z,20.24
2022-09-30T20:58:09.122Z,20.29
2022-09-30T21:00:39.999Z,20.35
2022-09-30T21:03:10.014Z,20.26
2022-09-30T21:05:40.320Z,20.24
2022-09-30T21:08:08.568Z,20.24
2022-09-30T21:10:38.790Z,20.25
2022-09-30T21:13:11.608Z,20.23
2022-09-30T21:15:40.299Z,20.24
2022-09-30T21:18:09.050Z,20.25
2022-09-30T21:20:37.938Z,20.22
2022-09-30T21:23:07.846Z,20.20
2022-09-30T21:25:36.038Z,20.19
2022-09-30T21:28:04.839Z,20.21
2022-09-30T21:30:32.820Z,20.18
2022-09-30T21:33:00.930Z,20.22
2022-09-30T21:35:28.913Z,20.18
2022-09-30T21:37:56.766Z,20.19
2022-09-30T21:40:28.100Z,20.19
2022-09-30T21:42:56.125Z,20.18
2022-09-30T21:45:25.329Z,20.20
2022-09-30T21:48:02.140Z,20.22
2022-09-30T21:50:32.863Z,20.24
2022-09-30T21:53:00.944Z,20.20
2022-09-30T21:55:31.071Z,20.15
2022-09-30T21:57:59.035Z,20.18
2022-09-30T22:00:27.065Z,20.25
2022-09-30T22:02:55.307Z,20.20
2022-09-30T22:05:23.254Z,20.18
2022-09-30T22:07:51.230Z,20.22
2022-09-30T22:10:19.130Z,20.18
2022-09-30T22:12:50.063Z,20.22
2022-09-30T22:15:18.320Z,20.20
2022-09-30T22:17:46.324Z,20.24
2022-09-30T22:20:14.523Z,20.21
2022-09-30T22:22:42.602Z,20.25
2022-09-30T22:25:10.981Z,20.25
2022-09-30T22:27:39.042Z,20.17
2022-09-30T22:30:10.743Z,20.22
2022-09-30T22:32:38.787Z,20.19
2022-09-30T22:35:25.230Z,20.17
2022-09-30T22:38:10.463Z,20.15
2022-09-30T22:40:38.455Z,20.08
2022-09-30T22:43:06.867Z,20.09
2022-09-30T22:45:36.765Z,20.06
2022-09-30T22:48:04.944Z,20.07
2022-09-30T22:50:36.793Z,20.05
2022-09-30T22:53:04.975Z,20.08
2022-09-30T22:55:33.345Z,20.11
2022-09-30T22:58:01.390Z,20.07
2022-09-30T23:00:29.576Z,20.02
2022-09-30T23:02:59.252Z,20.09
2022-09-30T23:05:27.423Z,20.06
2022-09-30T23:08:10.294Z,20.03
2022-09-30T23:10:39.343Z,20.03
2022-09-30T23:13:09.005Z,20.10
2022-09-30T23:15:36.997Z,20.08
2022-09-30T23:18:08.759Z,20.07
2022-09-30T23:20:36.729Z,20.07
2022-09-30T23:23:04.686Z,20.06
2022-09-30T23:25:32.600Z,20.06
2022-09-30T23:28:00.657Z,20.05
2022-09-30T23:30:29.028Z,20.08
2022-09-30T23:32:58.162Z,20.14
2022-09-30T23:35:27.718Z,20.11
2022-09-30T23:37:55.623Z,20.15
2022-09-30T23:40:23.716Z,20.13
2022-09-30T23:42:51.765Z,20.20
2022-09-30T23:45:19.742Z,20.17
2022-09-30T23:47:49.248Z,20.20
2022-09-30T23:50:17.379Z,20.23
2022-09-30T23:52:46.979Z,20.19
2022-09-30T23:55:15.077Z,20.24
2022-09-30T23:57:47.072Z,20.23
